SKCL/CLO METAR and TAF weather

Enter ICAO airport designator
Station Type Date Time Source
SKCL METAR 2021/07/29 19:00 UTC NOAA

SKCL 291900Z 32007KT 270V020 9999 SCT025 31/18 Q1012 NOSIG RMK A2990


Station Type Date Time Source
SKCL Decoded METAR 2021/07/29 19:00 UTC NOAA

Cali / Alfonso Bonillaaragon, Colombia (SKCL) 03-33N 076-23W 969M
Jul 29, 2021 - 03:00 PM EDT / 2021.07.29 1900 UTC
Wind: from the NW (320 degrees) at 8 MPH (7 KT) (direction variable):0
Visibility: greater than 7 mile(s):0
Sky conditions: partly cloudy
Temperature: 87 F (31 C)
Dew Point: 64 F (18 C)
Relative Humidity: 45%
Pressure (altimeter): 29.88 in. Hg (1012 hPa)
ob: SKCL 291900Z 32007KT 270V020 9999 SCT025 31/18 Q1012 NOSIG RMK A2990
cycle: 19

Station Type Date Time Source
SKCL TAF 2021/07/29 18:39 UTC NOAA

TAF SKCL 291630Z 2918/3018 VRB04KT 9999 SCT030
BECMG 2920/2922 32012KT
TEMPO 2923/3003 DZ SCT020TCU BKN100
BECMG 3004/3006 VRB03KT TX31/2920Z TN18/3010Z

Example: see airport list